Terminal Aerodrome Forecast
Issued by NWS Billings, MT

Home | Current Version | Previous Version | Text Only | Print | Product List | Glossary On
Versions: 1 2 3 4 5 6 7 8 9 10 11 12 13 14 15 16 17 18 19 20
000
FTUS45 KBYZ 161120
TAFBIL
TAF
KBIL 161120Z 1612/1712 VRB04KT P6SM SKC
     FM161700 22008KT P6SM SKC
     FM170600 26008KT P6SM SKC
     FM170900 26007KT P6SM SCT090=

USA.gov is the U.S. government's official web portal to all federal, state and local government web resources and services.